Baltimore, Maryland
Traffic Map
Current Weather Conditions
Baltimore, Maryland
Few Clouds
Few Clouds

Feels Like: 8°
Wind Chill: Ceiling: Unl
Heat Index: Visibility: 10mi
Dew Point: Wind: 0mph
Humidity: 100% Direction: ° ()
Pressure: 30.29in Gusts: 0mph
Raw Report DataKBWI 210954Z 00000KT 10SM FEW250 08/08 A3029 RMK AO2 SLP256 T00780078
Traffic Incident Summary
Active as of:
Severity:
Category:
InformationThere was an issue retrieving the traffic information for this location. Please try a different location or try again shortly.
Advertisements